createdAt,value
2023-04-03T00:00:15.090Z,83
2023-04-03T00:05:15.090Z,84
2023-04-03T00:10:15.101Z,84
2023-04-03T00:15:15.086Z,83
2023-04-03T00:20:15.094Z,83
2023-04-03T00:25:15.107Z,83
2023-04-03T00:30:15.092Z,83
2023-04-03T00:35:15.089Z,83
2023-04-03T00:40:15.099Z,83
2023-04-03T00:45:15.077Z,83
2023-04-03T00:50:15.132Z,83
2023-04-03T00:55:15.089Z,82
2023-04-03T01:00:15.087Z,83
2023-04-03T01:05:15.102Z,82
2023-04-03T01:10:15.083Z,82
2023-04-03T01:15:15.091Z,82
2023-04-03T01:20:15.102Z,82
2023-04-03T01:25:15.086Z,81
2023-04-03T01:30:15.104Z,81
2023-04-03T01:35:15.092Z,81
2023-04-03T01:40:15.096Z,81
2023-04-03T01:45:15.096Z,81
2023-04-03T01:50:15.103Z,81
2023-04-03T01:55:15.094Z,81
2023-04-03T02:00:15.094Z,81
2023-04-03T02:05:15.092Z,81
2023-04-03T02:10:15.108Z,81
2023-04-03T02:15:15.088Z,82
2023-04-03T02:20:15.097Z,82
2023-04-03T02:25:15.102Z,82
2023-04-03T02:30:15.087Z,83
2023-04-03T02:35:15.089Z,83
2023-04-03T02:40:15.106Z,84
2023-04-03T02:45:15.089Z,84
2023-04-03T02:50:15.091Z,84
2023-04-03T02:55:15.085Z,85
2023-04-03T03:00:15.088Z,85
2023-04-03T03:05:15.104Z,85
2023-04-03T03:10:15.084Z,85
2023-04-03T03:15:15.092Z,85
2023-04-03T03:20:15.095Z,84
2023-04-03T03:25:15.083Z,84
2023-04-03T03:30:15.098Z,83
2023-04-03T03:35:15.097Z,83
2023-04-03T03:40:15.104Z,82
2023-04-03T03:45:15.089Z,82
2023-04-03T03:50:15.095Z,82
2023-04-03T03:55:15.093Z,83
2023-04-03T04:00:15.105Z,83
2023-04-03T04:05:15.103Z,83
2023-04-03T04:10:15.100Z,83
2023-04-03T04:15:15.104Z,84
2023-04-03T04:20:15.103Z,83
2023-04-03T04:25:15.088Z,82
2023-04-03T04:30:15.092Z,82
2023-04-03T04:35:16.836Z,82
2023-04-03T04:40:15.090Z,83
2023-04-03T04:45:15.084Z,83
2023-04-03T04:50:15.103Z,83
2023-04-03T04:55:15.128Z,83
2023-04-03T05:00:15.119Z,84
2023-04-03T05:05:15.192Z,84
2023-04-03T05:10:15.100Z,85
2023-04-03T05:15:15.096Z,85
2023-04-03T05:20:15.093Z,86
2023-04-03T05:25:15.121Z,86
2023-04-03T05:30:15.103Z,86
2023-04-03T05:35:15.111Z,86
2023-04-03T05:40:16.364Z,86
2023-04-03T05:45:15.098Z,86
2023-04-03T05:50:15.095Z,86
2023-04-03T05:55:15.092Z,86
2023-04-03T06:00:15.087Z,85
2023-04-03T06:05:15.087Z,84
2023-04-03T06:10:15.092Z,84
2023-04-03T06:15:15.093Z,83
2023-04-03T06:20:15.101Z,82
2023-04-03T06:25:15.109Z,82
2023-04-03T06:30:15.086Z,81
2023-04-03T06:35:15.091Z,81
2023-04-03T06:40:15.094Z,80
2023-04-03T06:45:15.158Z,80
2023-04-03T06:50:15.086Z,79
2023-04-03T06:55:15.086Z,79
2023-04-03T07:00:15.083Z,78
2023-04-03T07:05:15.085Z,78
2023-04-03T07:10:15.101Z,77
2023-04-03T07:15:15.091Z,77
2023-04-03T07:20:15.101Z,77
2023-04-03T07:25:15.081Z,76
2023-04-03T07:30:15.131Z,76
2023-04-03T07:35:15.092Z,75
2023-04-03T07:40:15.105Z,75
2023-04-03T07:45:15.088Z,75
2023-04-03T07:50:15.087Z,75
2023-04-03T07:55:15.089Z,74
2023-04-03T08:00:15.107Z,74
2023-04-03T08:05:15.129Z,73
2023-04-03T08:10:15.094Z,73
2023-04-03T08:15:15.084Z,73
2023-04-03T08:20:15.096Z,73
2023-04-03T08:25:15.086Z,71
2023-04-03T08:30:15.094Z,71
2023-04-03T08:35:15.092Z,70
2023-04-03T08:40:15.121Z,71
2023-04-03T08:45:15.096Z,71
2023-04-03T08:50:15.234Z,71
2023-04-03T08:55:15.093Z,70
2023-04-03T09:00:15.109Z,70
2023-04-03T09:05:15.102Z,69
2023-04-03T09:10:15.090Z,67
2023-04-03T09:15:15.176Z,68
2023-04-03T09:20:15.102Z,67
2023-04-03T09:25:15.101Z,66
2023-04-03T09:30:15.102Z,67
2023-04-03T09:35:20.466Z,65
2023-04-03T09:40:15.089Z,60
2023-04-03T09:45:15.090Z,62
2023-04-03T09:50:15.194Z,62
2023-04-03T09:55:15.092Z,62
2023-04-03T10:00:15.103Z,61
2023-04-03T10:05:15.171Z,59
2023-04-03T10:10:15.099Z,60
2023-04-03T10:15:15.137Z,59
2023-04-03T10:20:15.095Z,59
2023-04-03T10:25:15.115Z,57
2023-04-03T10:30:15.105Z,56
2023-04-03T10:35:15.090Z,56
2023-04-03T10:40:15.097Z,56
2023-04-03T10:45:15.092Z,57
2023-04-03T10:50:15.114Z,54
2023-04-03T10:55:15.087Z,54
2023-04-03T11:00:15.138Z,57
2023-04-03T11:05:15.095Z,57
2023-04-03T11:10:15.987Z,56
2023-04-03T11:15:15.089Z,54
2023-04-03T11:20:15.122Z,52
2023-04-03T11:25:15.104Z,54
2023-04-03T11:30:15.125Z,52
2023-04-03T11:35:15.092Z,53
2023-04-03T11:40:15.117Z,52
2023-04-03T11:45:15.098Z,52
2023-04-03T11:50:15.104Z,51
2023-04-03T11:55:15.102Z,50
2023-04-03T12:00:15.119Z,51
2023-04-03T12:05:15.110Z,51
2023-04-03T12:10:18.409Z,50
2023-04-03T12:15:15.103Z,50
2023-04-03T12:20:15.111Z,49
2023-04-03T12:25:15.100Z,49
2023-04-03T12:30:15.090Z,50
2023-04-03T12:35:15.087Z,48
2023-04-03T12:40:15.086Z,49
2023-04-03T12:45:15.090Z,50
2023-04-03T12:50:15.098Z,49
2023-04-03T12:55:15.105Z,49
2023-04-03T13:00:15.090Z,48
2023-04-03T13:05:15.100Z,49
2023-04-03T13:10:15.106Z,49
2023-04-03T13:15:15.102Z,48
2023-04-03T13:20:15.101Z,49
2023-04-03T13:25:15.104Z,49
2023-04-03T13:30:15.093Z,47
2023-04-03T13:35:18.514Z,46
2023-04-03T13:40:15.092Z,48
2023-04-03T13:45:15.109Z,47
2023-04-03T13:50:15.095Z,45
2023-04-03T13:55:18.819Z,46
2023-04-03T14:00:15.095Z,48
2023-04-03T14:05:15.079Z,47
2023-04-03T14:10:15.095Z,47
2023-04-03T14:15:15.096Z,47
2023-04-03T14:20:15.091Z,47
2023-04-03T14:25:15.076Z,47
2023-04-03T14:30:15.105Z,48
2023-04-03T14:35:15.089Z,46
2023-04-03T14:40:15.089Z,46
2023-04-03T14:45:15.080Z,46
2023-04-03T14:50:15.095Z,46
2023-04-03T14:55:15.097Z,45
2023-04-03T15:00:15.109Z,46
2023-04-03T15:05:15.081Z,46
2023-04-03T15:10:15.105Z,45
2023-04-03T15:15:30.087Z,44
2023-04-03T15:20:30.105Z,45
2023-04-03T15:25:30.090Z,44
2023-04-03T15:30:30.100Z,45
2023-04-03T15:35:30.134Z,46
2023-04-03T15:40:30.094Z,47
2023-04-03T15:45:30.095Z,48
2023-04-03T15:50:30.104Z,49
2023-04-03T15:55:30.089Z,48
2023-04-03T16:00:30.145Z,49
2023-04-03T16:05:30.109Z,48
2023-04-03T16:10:30.107Z,48
2023-04-03T16:15:30.106Z,49
2023-04-03T16:20:30.094Z,49
2023-04-03T16:25:30.086Z,49
2023-04-03T16:30:30.097Z,51
2023-04-03T16:35:30.105Z,50
2023-04-03T16:40:30.092Z,51
2023-04-03T16:45:30.099Z,51
2023-04-03T16:50:30.111Z,51
2023-04-03T16:55:45.094Z,52
2023-04-03T17:00:45.102Z,52
2023-04-03T17:05:45.087Z,52
2023-04-03T17:10:45.128Z,53
2023-04-03T17:15:45.094Z,52
2023-04-03T17:20:45.093Z,53
2023-04-03T17:25:45.077Z,54
2023-04-03T17:30:45.089Z,54
2023-04-03T17:35:45.092Z,54
2023-04-03T17:40:45.229Z,54
2023-04-03T17:45:45.088Z,54
2023-04-03T17:50:45.100Z,55
2023-04-03T17:55:45.098Z,56
2023-04-03T18:00:45.209Z,54
2023-04-03T18:05:45.102Z,57
2023-04-03T18:10:45.085Z,56
2023-04-03T18:15:45.120Z,58
2023-04-03T18:20:45.095Z,58
2023-04-03T18:25:45.088Z,58
2023-04-03T18:30:45.097Z,57
2023-04-03T18:35:45.120Z,56
2023-04-03T18:40:45.104Z,58
2023-04-03T18:45:45.104Z,59
2023-04-03T18:50:45.256Z,62
2023-04-03T18:55:45.093Z,64
2023-04-03T19:00:45.110Z,65
2023-04-03T19:05:45.181Z,66
2023-04-03T19:10:45.107Z,65
2023-04-03T19:15:45.091Z,62
2023-04-03T19:20:45.096Z,62
2023-04-03T19:25:45.123Z,62
2023-04-03T19:30:46.075Z,62
2023-04-03T19:35:45.234Z,63
2023-04-03T19:40:45.100Z,65
2023-04-03T19:45:45.099Z,65
2023-04-03T19:50:45.085Z,66
2023-04-03T19:55:45.088Z,65
2023-04-03T20:00:45.091Z,66
2023-04-03T20:05:45.081Z,66
2023-04-03T20:10:45.101Z,67
2023-04-03T20:15:45.116Z,67
2023-04-03T20:20:45.104Z,68
2023-04-03T20:25:50.998Z,69
2023-04-03T20:30:45.095Z,68
2023-04-03T20:35:45.088Z,68
2023-04-03T20:40:45.091Z,68
2023-04-03T20:45:45.096Z,69
2023-04-03T20:50:45.109Z,70
2023-04-03T20:55:45.086Z,70
2023-04-03T21:00:45.127Z,70
2023-04-03T21:05:45.088Z,70
2023-04-03T21:10:45.100Z,70
2023-04-03T21:15:45.158Z,70
2023-04-03T21:20:46.368Z,69
2023-04-03T21:25:45.092Z,69
2023-04-03T21:30:45.270Z,69
2023-04-03T21:35:45.189Z,69
2023-04-03T21:40:45.108Z,69
2023-04-03T21:45:45.095Z,68
2023-04-03T21:50:45.094Z,69
2023-04-03T21:55:45.089Z,70
2023-04-03T22:00:45.155Z,71
2023-04-03T22:05:45.100Z,72
2023-04-03T22:10:45.101Z,71
2023-04-03T22:15:45.133Z,71
2023-04-03T22:20:45.090Z,71
2023-04-03T22:25:45.082Z,70
2023-04-03T22:30:45.096Z,68
2023-04-03T22:35:45.106Z,68
2023-04-03T22:40:45.111Z,68
2023-04-03T22:45:45.095Z,67
2023-04-03T22:50:45.086Z,67
2023-04-03T22:55:45.090Z,66
2023-04-03T23:00:45.114Z,67
2023-04-03T23:05:45.082Z,68
2023-04-03T23:10:45.094Z,69
2023-04-03T23:15:45.101Z,69
2023-04-03T23:20:45.090Z,69
2023-04-03T23:25:45.097Z,70
2023-04-03T23:30:45.087Z,71
2023-04-03T23:35:45.182Z,71
2023-04-03T23:40:45.110Z,71
2023-04-03T23:45:45.108Z,72
2023-04-03T23:50:45.096Z,72
2023-04-03T23:55:45.083Z,73
